Airfield :
LOGIN :

Register | Disclaimer

   EN    FR    IT 

 










Legend :    VFR   Marginal VFR   IFR   Intensive IFR   Very Intensive IFR
Visi :
Ceiling :
>= 8 km
>= 3000ft
5 to 8 km
1000 to 3000 ft
1500m to 5 km
500 to 1000 ft
800 to 1500m
200 to 500 ft
< 800m
< 200 ft
Symbols :   Thunderstorms  Fog  Heavy snow  Heavy precipitations  Wind > 20 kt
SIGMETs :     Misc.  Thunderstorms  Icing  Turbulence  Mountain Waves  Volcanic Ashes






- Airport Elevation : 93 ft
- IATA code : XRY


LEJR - Jerez

CURRENT METAR :
  • 210030Z AUTO 16005KT 120V190 CAVOK 12/09 Q1024

EXPIRED METARs :
  • 210000Z AUTO 16004KT 120V200 CAVOK 10/07 Q1024
  • 202330Z AUTO 18002KT CAVOK 10/07 Q1024
  • 202300Z AUTO VRB02KT CAVOK 10/07 Q1024
  • 202230Z AUTO 11004KT CAVOK 11/07 Q1023

TAF TAF LEJR
Valid from the 21 at 00:00 until the 22 at 00:00 UTC


202300Z 2100/2124 04004KT CAVOK TX22/2115Z TN07/2106Z
BECMG 2111/2114 14010KT



MET'MAP, your aeronautical weather chart ! - Copyright ORBIFLY December 2007 - Disclaimer

ORBIFLY MET'MAP TEAM :

Programming & Development : Alexandra Zaïnal
Concept & original design : Baudouin d'Aumeries
Assistance for programming : Marc-Olivier Méhu
Technical & hardware support : Manuel Goepfert

Contact : metmap@orbifly.com




SOURCES & CREDITS :

   NOAA